sensor_id;sensor_type;location;lat;lon;timestamp;pressure;altitude;pressure_sealevel;temperature;humidity
59877;BME280;45749;51.140;17.184;2022-07-10T00:00:05;100240.05;;;15.87;75.89
59877;BME280;45749;51.140;17.184;2022-07-10T00:02:37;100241.88;;;15.86;75.94
59877;BME280;45749;51.140;17.184;2022-07-10T00:05:05;100239.39;;;15.89;76.19
59877;BME280;45749;51.140;17.184;2022-07-10T00:07:31;100238.43;;;15.90;76.43
59877;BME280;45749;51.140;17.184;2022-07-10T00:09:58;100233.90;;;15.86;76.66
59877;BME280;45749;51.140;17.184;2022-07-10T00:12:24;100234.69;;;15.83;76.54
59877;BME280;45749;51.140;17.184;2022-07-10T00:14:50;100234.48;;;15.80;76.87
59877;BME280;45749;51.140;17.184;2022-07-10T00:17:16;100232.31;;;15.80;77.06
59877;BME280;45749;51.140;17.184;2022-07-10T00:19:42;100238.11;;;15.79;77.06
59877;BME280;45749;51.140;17.184;2022-07-10T00:22:09;100238.89;;;15.76;77.38
59877;BME280;45749;51.140;17.184;2022-07-10T00:24:35;100230.91;;;15.76;77.38
59877;BME280;45749;51.140;17.184;2022-07-10T00:27:01;100228.55;;;15.73;77.33
59877;BME280;45749;51.140;17.184;2022-07-10T00:29:27;100226.38;;;15.72;77.81
59877;BME280;45749;51.140;17.184;2022-07-10T00:31:53;100222.69;;;15.69;77.63
59877;BME280;45749;51.140;17.184;2022-07-10T00:34:19;100229.33;;;15.69;77.95
59877;BME280;45749;51.140;17.184;2022-07-10T00:36:45;100232.25;;;15.66;78.09
59877;BME280;45749;51.140;17.184;2022-07-10T00:39:11;100230.20;;;15.60;78.27
59877;BME280;45749;51.140;17.184;2022-07-10T00:41:37;100215.58;;;15.60;78.40
59877;BME280;45749;51.140;17.184;2022-07-10T00:44:03;100220.40;;;15.60;78.49
59877;BME280;45749;51.140;17.184;2022-07-10T00:46:30;100222.85;;;15.58;78.67
59877;BME280;45749;51.140;17.184;2022-07-10T00:48:57;100219.65;;;15.54;79.00
59877;BME280;45749;51.140;17.184;2022-07-10T00:51:26;100219.73;;;15.48;78.84
59877;BME280;45749;51.140;17.184;2022-07-10T00:53:53;100217.39;;;15.36;79.24
59877;BME280;45749;51.140;17.184;2022-07-10T00:56:21;100225.12;;;15.43;79.46
59877;BME280;45749;51.140;17.184;2022-07-10T00:58:49;100225.23;;;15.37;79.83
59877;BME280;45749;51.140;17.184;2022-07-10T01:01:17;100224.20;;;15.34;80.05
59877;BME280;45749;51.140;17.184;2022-07-10T01:03:44;100202.53;;;15.19;80.02
59877;BME280;45749;51.140;17.184;2022-07-10T01:06:14;100227.48;;;15.32;80.18
59877;BME280;45749;51.140;17.184;2022-07-10T01:08:42;100222.45;;;15.29;80.53
59877;BME280;45749;51.140;17.184;2022-07-10T01:11:09;100219.89;;;15.23;80.50
59877;BME280;45749;51.140;17.184;2022-07-10T01:13:37;100224.50;;;15.21;80.81
59877;BME280;45749;51.140;17.184;2022-07-10T01:16:03;100194.30;;;15.13;80.94
59877;BME280;45749;51.140;17.184;2022-07-10T01:18:29;100194.30;;;15.13;80.94
59877;BME280;45749;51.140;17.184;2022-07-10T01:20:56;100217.42;;;15.26;80.79
59877;BME280;45749;51.140;17.184;2022-07-10T01:23:22;100218.07;;;15.24;81.11
59877;BME280;45749;51.140;17.184;2022-07-10T01:25:50;100218.07;;;15.24;81.11
59877;BME280;45749;51.140;17.184;2022-07-10T01:28:17;100221.84;;;15.21;81.12
59877;BME280;45749;51.140;17.184;2022-07-10T01:30:43;100221.84;;;15.21;81.12
59877;BME280;45749;51.140;17.184;2022-07-10T01:33:09;100200.55;;;15.08;81.24
59877;BME280;45749;51.140;17.184;2022-07-10T01:35:36;100200.55;;;15.08;81.24
59877;BME280;45749;51.140;17.184;2022-07-10T01:38:02;100226.95;;;15.19;81.15
59877;BME280;45749;51.140;17.184;2022-07-10T01:40:28;100227.63;;;15.07;81.40
59877;BME280;45749;51.140;17.184;2022-07-10T01:42:54;100201.35;;;14.94;81.52
59877;BME280;45749;51.140;17.184;2022-07-10T01:45:20;100201.35;;;14.94;81.52
59877;BME280;45749;51.140;17.184;2022-07-10T01:47:46;100219.56;;;15.03;82.03
59877;BME280;45749;51.140;17.184;2022-07-10T01:50:12;100219.56;;;15.03;82.03
59877;BME280;45749;51.140;17.184;2022-07-10T01:52:39;100219.30;;;14.96;82.05
59877;BME280;45749;51.140;17.184;2022-07-10T01:55:06;100218.12;;;14.95;82.21
59877;BME280;45749;51.140;17.184;2022-07-10T01:57:33;100200.59;;;14.78;82.42
59877;BME280;45749;51.140;17.184;2022-07-10T01:59:59;100200.59;;;14.78;82.42
59877;BME280;45749;51.140;17.184;2022-07-10T02:02:25;100212.67;;;14.87;82.64
59877;BME280;45749;51.140;17.184;2022-07-10T02:04:51;100218.62;;;14.85;83.02
59877;BME280;45749;51.140;17.184;2022-07-10T02:07:18;100220.08;;;14.83;82.94
59877;BME280;45749;51.140;17.184;2022-07-10T02:09:46;100225.39;;;14.83;82.99
59877;BME280;45749;51.140;17.184;2022-07-10T02:12:13;100225.39;;;14.83;82.99
59877;BME280;45749;51.140;17.184;2022-07-10T02:14:41;100227.99;;;14.79;83.09
59877;BME280;45749;51.140;17.184;2022-07-10T02:17:08;100229.11;;;14.76;83.54
59877;BME280;45749;51.140;17.184;2022-07-10T02:19:35;100229.11;;;14.76;83.54
59877;BME280;45749;51.140;17.184;2022-07-10T02:22:01;100233.25;;;14.75;83.50
59877;BME280;45749;51.140;17.184;2022-07-10T02:24:27;100240.66;;;14.71;83.66
59877;BME280;45749;51.140;17.184;2022-07-10T02:26:53;100235.62;;;14.68;83.95
59877;BME280;45749;51.140;17.184;2022-07-10T02:29:21;100230.93;;;14.66;84.02
59877;BME280;45749;51.140;17.184;2022-07-10T02:31:48;100226.45;;;14.67;84.20
59877;BME280;45749;51.140;17.184;2022-07-10T02:34:14;100233.30;;;14.69;84.17
59877;BME280;45749;51.140;17.184;2022-07-10T02:36:41;100223.02;;;14.70;84.19
59877;BME280;45749;51.140;17.184;2022-07-10T02:39:08;100222.90;;;14.72;84.08
59877;BME280;45749;51.140;17.184;2022-07-10T02:41:35;100227.93;;;14.75;84.26
59877;BME280;45749;51.140;17.184;2022-07-10T02:44:04;100224.23;;;14.72;84.25
59877;BME280;45749;51.140;17.184;2022-07-10T02:46:30;100229.66;;;14.70;84.05
59877;BME280;45749;51.140;17.184;2022-07-10T02:48:56;100225.67;;;14.70;83.89
59877;BME280;45749;51.140;17.184;2022-07-10T02:51:22;100220.19;;;14.68;83.79
59877;BME280;45749;51.140;17.184;2022-07-10T02:53:47;100231.27;;;14.67;83.83
59877;BME280;45749;51.140;17.184;2022-07-10T02:56:13;100227.22;;;14.63;83.66
59877;BME280;45749;51.140;17.184;2022-07-10T02:58:39;100224.72;;;14.62;83.98
59877;BME280;45749;51.140;17.184;2022-07-10T03:01:05;100223.45;;;14.56;83.73
59877;BME280;45749;51.140;17.184;2022-07-10T03:03:32;100225.61;;;14.57;83.91
59877;BME280;45749;51.140;17.184;2022-07-10T03:05:58;100227.72;;;14.63;83.97
59877;BME280;45749;51.140;17.184;2022-07-10T03:08:25;100231.42;;;14.66;83.83
59877;BME280;45749;51.140;17.184;2022-07-10T03:10:51;100234.84;;;14.62;83.80
59877;BME280;45749;51.140;17.184;2022-07-10T03:13:17;100240.93;;;14.59;83.97
59877;BME280;45749;51.140;17.184;2022-07-10T03:15:43;100234.56;;;14.56;84.36
59877;BME280;45749;51.140;17.184;2022-07-10T03:18:09;100238.83;;;14.52;84.48
59877;BME280;45749;51.140;17.184;2022-07-10T03:20:35;100237.16;;;14.51;84.54
59877;BME280;45749;51.140;17.184;2022-07-10T03:23:01;100233.86;;;14.53;84.63
59877;BME280;45749;51.140;17.184;2022-07-10T03:25:27;100239.81;;;14.51;84.64
59877;BME280;45749;51.140;17.184;2022-07-10T03:27:53;100232.69;;;14.52;84.72
59877;BME280;45749;51.140;17.184;2022-07-10T03:30:19;100230.03;;;14.52;84.66
59877;BME280;45749;51.140;17.184;2022-07-10T03:32:45;100229.38;;;14.54;84.75
59877;BME280;45749;51.140;17.184;2022-07-10T03:35:11;100232.19;;;14.52;84.71
59877;BME280;45749;51.140;17.184;2022-07-10T03:37:37;100227.13;;;14.49;84.93
59877;BME280;45749;51.140;17.184;2022-07-10T03:40:04;100234.25;;;14.49;84.59
59877;BME280;45749;51.140;17.184;2022-07-10T03:42:30;100234.75;;;14.48;84.55
59877;BME280;45749;51.140;17.184;2022-07-10T03:44:56;100236.41;;;14.49;84.54
59877;BME280;45749;51.140;17.184;2022-07-10T03:47:22;100231.94;;;14.50;84.19
59877;BME280;45749;51.140;17.184;2022-07-10T03:49:48;100233.05;;;14.47;84.18
59877;BME280;45749;51.140;17.184;2022-07-10T03:52:15;100235.70;;;14.47;84.05
59877;BME280;45749;51.140;17.184;2022-07-10T03:54:41;100227.40;;;14.46;83.94
59877;BME280;45749;51.140;17.184;2022-07-10T03:57:07;100227.28;;;14.48;84.03
59877;BME280;45749;51.140;17.184;2022-07-10T03:59:51;100230.61;;;14.50;83.74
59877;BME280;45749;51.140;17.184;2022-07-10T04:02:17;100228.73;;;14.46;83.50
59877;BME280;45749;51.140;17.184;2022-07-10T04:04:43;100233.14;;;14.42;83.50
59877;BME280;45749;51.140;17.184;2022-07-10T04:07:10;100239.28;;;14.42;83.42
59877;BME280;45749;51.140;17.184;2022-07-10T04:09:38;100237.12;;;14.42;83.54
59877;BME280;45749;51.140;17.184;2022-07-10T04:12:05;100241.09;;;14.42;83.54
59877;BME280;45749;51.140;17.184;2022-07-10T04:14:31;100240.61;;;14.42;83.54
59877;BME280;45749;51.140;17.184;2022-07-10T04:16:57;100241.09;;;14.42;83.31
59877;BME280;45749;51.140;17.184;2022-07-10T04:19:23;100244.52;;;14.38;83.14
59877;BME280;45749;51.140;17.184;2022-07-10T04:21:49;100236.19;;;14.37;83.15
59877;BME280;45749;51.140;17.184;2022-07-10T04:24:15;100241.87;;;14.38;83.30
59877;BME280;45749;51.140;17.184;2022-07-10T04:26:42;100233.26;;;14.40;83.31
59877;BME280;45749;51.140;17.184;2022-07-10T04:29:08;100232.42;;;14.40;83.22
59877;BME280;45749;51.140;17.184;2022-07-10T04:31:34;100235.64;;;14.43;83.20
59877;BME280;45749;51.140;17.184;2022-07-10T04:34:00;100235.52;;;14.45;82.89
59877;BME280;45749;51.140;17.184;2022-07-10T04:36:26;100227.89;;;14.46;82.95
59877;BME280;45749;51.140;17.184;2022-07-10T04:38:52;100231.04;;;14.45;82.84
59877;BME280;45749;51.140;17.184;2022-07-10T04:41:18;100229.06;;;14.47;82.94
59877;BME280;45749;51.140;17.184;2022-07-10T04:43:44;100224.84;;;14.50;82.69
59877;BME280;45749;51.140;17.184;2022-07-10T04:46:10;100227.50;;;14.50;82.55
59877;BME280;45749;51.140;17.184;2022-07-10T04:48:36;100236.41;;;14.49;82.10
59877;BME280;45749;51.140;17.184;2022-07-10T04:51:02;100235.58;;;14.49;81.98
59877;BME280;45749;51.140;17.184;2022-07-10T04:53:28;100233.42;;;14.48;82.28
59877;BME280;45749;51.140;17.184;2022-07-10T04:55:54;100232.69;;;14.52;82.27
59877;BME280;45749;51.140;17.184;2022-07-10T04:58:20;100233.02;;;14.53;82.22
59877;BME280;45749;51.140;17.184;2022-07-10T05:00:46;100236.17;;;14.52;82.16
59877;BME280;45749;51.140;17.184;2022-07-10T05:03:12;100233.02;;;14.53;82.12
59877;BME280;45749;51.140;17.184;2022-07-10T05:05:40;100233.73;;;14.55;82.39
59877;BME280;45749;51.140;17.184;2022-07-10T05:08:06;100233.86;;;14.53;82.09
59877;BME280;45749;51.140;17.184;2022-07-10T05:10:32;100237.99;;;14.52;82.36
59877;BME280;45749;51.140;17.184;2022-07-10T05:12:58;100235.68;;;14.53;82.57
59877;BME280;45749;51.140;17.184;2022-07-10T05:15:24;100230.59;;;14.56;82.54
59877;BME280;45749;51.140;17.184;2022-07-10T05:17:49;100231.14;;;14.59;82.53
59877;BME280;45749;51.140;17.184;2022-07-10T05:20:15;100234.97;;;14.61;82.56
59877;BME280;45749;51.140;17.184;2022-07-10T05:22:41;100234.36;;;14.63;82.35
59877;BME280;45749;51.140;17.184;2022-07-10T05:25:07;100229.88;;;14.63;82.25
59877;BME280;45749;51.140;17.184;2022-07-10T05:27:33;100224.94;;;14.64;82.33
59877;BME280;45749;51.140;17.184;2022-07-10T05:29:59;100230.37;;;14.63;81.84
59877;BME280;45749;51.140;17.184;2022-07-10T05:32:25;100233.86;;;14.63;81.85
59877;BME280;45749;51.140;17.184;2022-07-10T05:34:51;100229.05;;;14.63;81.22
59877;BME280;45749;51.140;17.184;2022-07-10T05:37:17;100230.16;;;14.60;81.24
59877;BME280;45749;51.140;17.184;2022-07-10T05:39:43;100232.47;;;14.59;80.91
59877;BME280;45749;51.140;17.184;2022-07-10T05:42:10;100232.81;;;14.60;81.32
59877;BME280;45749;51.140;17.184;2022-07-10T05:44:36;100235.84;;;14.61;81.61
59877;BME280;45749;51.140;17.184;2022-07-10T05:47:02;100236.67;;;14.62;80.70
59877;BME280;45749;51.140;17.184;2022-07-10T05:49:29;100232.31;;;14.61;80.44
59877;BME280;45749;51.140;17.184;2022-07-10T05:51:56;100235.84;;;14.61;80.37
59877;BME280;45749;51.140;17.184;2022-07-10T05:54:22;100237.72;;;14.65;80.56
59877;BME280;45749;51.140;17.184;2022-07-10T05:56:48;100237.45;;;14.68;80.04
59877;BME280;45749;51.140;17.184;2022-07-10T05:59:15;100239.33;;;14.71;80.13
59877;BME280;45749;51.140;17.184;2022-07-10T06:01:41;100239.88;;;14.75;79.83
59877;BME280;45749;51.140;17.184;2022-07-10T06:04:07;100242.27;;;14.78;79.44
59877;BME280;45749;51.140;17.184;2022-07-10T06:06:33;100234.97;;;14.80;79.40
59877;BME280;45749;51.140;17.184;2022-07-10T06:08:59;100241.33;;;14.83;78.83
59877;BME280;45749;51.140;17.184;2022-07-10T06:11:25;100240.72;;;14.85;78.30
59877;BME280;45749;51.140;17.184;2022-07-10T06:13:51;100232.25;;;14.86;77.57
59877;BME280;45749;51.140;17.184;2022-07-10T06:16:17;100246.58;;;14.89;77.23
59877;BME280;45749;51.140;17.184;2022-07-10T06:18:43;100237.00;;;14.92;76.04
59877;BME280;45749;51.140;17.184;2022-07-10T06:21:09;100233.23;;;14.94;76.58
59877;BME280;45749;51.140;17.184;2022-07-10T06:23:35;100234.19;;;14.93;76.05
59877;BME280;45749;51.140;17.184;2022-07-10T06:26:01;100240.70;;;14.95;76.25
59877;BME280;45749;51.140;17.184;2022-07-10T06:28:27;100231.13;;;14.98;76.02
59877;BME280;45749;51.140;17.184;2022-07-10T06:30:53;100224.70;;;15.00;76.16
59877;BME280;45749;51.140;17.184;2022-07-10T06:33:19;100230.75;;;15.07;76.13
59877;BME280;45749;51.140;17.184;2022-07-10T06:35:45;100230.13;;;15.09;75.91
59877;BME280;45749;51.140;17.184;2022-07-10T06:38:11;100231.22;;;15.16;76.47
59877;BME280;45749;51.140;17.184;2022-07-10T06:40:37;100233.66;;;15.23;76.38
59877;BME280;45749;51.140;17.184;2022-07-10T06:43:03;100231.41;;;15.28;75.84
59877;BME280;45749;51.140;17.184;2022-07-10T06:45:30;100233.58;;;15.29;75.51
59877;BME280;45749;51.140;17.184;2022-07-10T06:47:56;100229.92;;;15.30;75.28
59877;BME280;45749;51.140;17.184;2022-07-10T06:50:24;100233.78;;;15.31;75.48
59877;BME280;45749;51.140;17.184;2022-07-10T06:52:51;100229.30;;;15.32;75.03
59877;BME280;45749;51.140;17.184;2022-07-10T06:55:20;100205.06;;;15.21;74.17
59877;BME280;45749;51.140;17.184;2022-07-10T06:57:47;100205.06;;;15.21;74.17
59877;BME280;45749;51.140;17.184;2022-07-10T07:00:14;100227.48;;;15.32;74.03
59877;BME280;45749;51.140;17.184;2022-07-10T07:02:41;100225.37;;;15.36;74.00
59877;BME280;45749;51.140;17.184;2022-07-10T07:05:08;100225.37;;;15.36;74.00
59877;BME280;45749;51.140;17.184;2022-07-10T07:07:34;100224.58;;;15.39;73.23
59877;BME280;45749;51.140;17.184;2022-07-10T07:10:01;100225.78;;;15.41;73.52
59877;BME280;45749;51.140;17.184;2022-07-10T07:12:27;100219.44;;;15.52;73.13
59877;BME280;45749;51.140;17.184;2022-07-10T07:14:53;100225.09;;;15.53;72.50
59877;BME280;45749;51.140;17.184;2022-07-10T07:17:20;100225.09;;;15.53;72.50
59877;BME280;45749;51.140;17.184;2022-07-10T07:19:48;100229.74;;;15.51;72.54
59877;BME280;45749;51.140;17.184;2022-07-10T07:22:34;100232.53;;;15.49;72.65
59877;BME280;45749;51.140;17.184;2022-07-10T07:25:19;100232.53;;;15.49;72.65
59877;BME280;45749;51.140;17.184;2022-07-10T07:27:45;100231.98;;;15.45;71.92
59877;BME280;45749;51.140;17.184;2022-07-10T07:30:13;100234.09;;;15.42;72.57
59877;BME280;45749;51.140;17.184;2022-07-10T07:32:41;100239.41;;;15.42;72.19
59877;BME280;45749;51.140;17.184;2022-07-10T07:35:10;100237.54;;;15.38;71.92
59877;BME280;45749;51.140;17.184;2022-07-10T07:37:42;100240.98;;;15.35;72.12
59877;BME280;45749;51.140;17.184;2022-07-10T07:40:18;100239.31;;;15.34;72.21
59877;BME280;45749;51.140;17.184;2022-07-10T07:42:41;100213.17;;;15.19;71.74
59877;BME280;45749;51.140;17.184;2022-07-10T07:45:09;100238.11;;;15.32;71.99
59877;BME280;45749;51.140;17.184;2022-07-10T07:47:57;100238.11;;;15.32;71.99
59877;BME280;45749;51.140;17.184;2022-07-10T07:50:23;100231.67;;;15.35;72.11
59877;BME280;45749;51.140;17.184;2022-07-10T07:52:53;100230.27;;;15.40;72.18
59877;BME280;45749;51.140;17.184;2022-07-10T07:55:20;100234.30;;;15.44;71.51
59877;BME280;45749;51.140;17.184;2022-07-10T07:57:47;100207.75;;;15.35;71.86
59877;BME280;45749;51.140;17.184;2022-07-10T08:00:14;100234.23;;;15.50;71.81
59877;BME280;45749;51.140;17.184;2022-07-10T08:02:43;100233.08;;;15.53;71.67
59877;BME280;45749;51.140;17.184;2022-07-10T08:05:10;100229.30;;;15.55;71.51
59877;BME280;45749;51.140;17.184;2022-07-10T08:07:41;100231.45;;;15.56;71.33
59877;BME280;45749;51.140;17.184;2022-07-10T08:10:10;100229.00;;;15.58;71.72
59877;BME280;45749;51.140;17.184;2022-07-10T08:12:39;100228.55;;;15.63;71.40
59877;BME280;45749;51.140;17.184;2022-07-10T08:15:08;100227.67;;;15.68;71.11
59877;BME280;45749;51.140;17.184;2022-07-10T08:17:36;100234.03;;;15.71;71.11
59877;BME280;45749;51.140;17.184;2022-07-10T08:20:03;100232.07;;;15.73;71.20
59877;BME280;45749;51.140;17.184;2022-07-10T08:22:31;100227.29;;;15.77;71.08
59877;BME280;45749;51.140;17.184;2022-07-10T08:24:58;100225.05;;;15.86;70.12
59877;BME280;45749;51.140;17.184;2022-07-10T08:27:24;100196.53;;;15.78;70.27
59877;BME280;45749;51.140;17.184;2022-07-10T08:29:51;100222.91;;;15.99;69.67
59877;BME280;45749;51.140;17.184;2022-07-10T08:32:18;100222.91;;;15.99;69.67
59877;BME280;45749;51.140;17.184;2022-07-10T08:34:44;100221.62;;;16.03;70.19
59877;BME280;45749;51.140;17.184;2022-07-10T08:37:10;100223.28;;;16.04;70.28
59877;BME280;45749;51.140;17.184;2022-07-10T08:39:36;100223.28;;;16.04;70.28
59877;BME280;45749;51.140;17.184;2022-07-10T08:42:04;100220.78;;;16.03;70.04
59877;BME280;45749;51.140;17.184;2022-07-10T08:44:33;100222.12;;;16.03;70.30
59877;BME280;45749;51.140;17.184;2022-07-10T08:46:59;100223.08;;;16.02;69.62
59877;BME280;45749;51.140;17.184;2022-07-10T08:49:29;100215.20;;;15.82;68.97
59877;BME280;45749;51.140;17.184;2022-07-10T08:51:58;100236.15;;;15.81;68.93
59877;BME280;45749;51.140;17.184;2022-07-10T08:54:28;100235.07;;;15.64;70.03
59877;BME280;45749;51.140;17.184;2022-07-10T08:56:59;100233.68;;;15.46;71.25
59877;BME280;45749;51.140;17.184;2022-07-10T08:59:27;100229.04;;;15.25;71.61
59877;BME280;45749;51.140;17.184;2022-07-10T09:01:54;100234.27;;;15.07;72.54
59877;BME280;45749;51.140;17.184;2022-07-10T09:04:22;100234.97;;;14.90;74.06
59877;BME280;45749;51.140;17.184;2022-07-10T09:06:51;100239.67;;;14.82;74.01
59877;BME280;45749;51.140;17.184;2022-07-10T09:09:19;100238.19;;;14.84;75.24
59877;BME280;45749;51.140;17.184;2022-07-10T09:11:45;100250.02;;;14.85;75.22
59877;BME280;45749;51.140;17.184;2022-07-10T09:14:14;100245.32;;;14.83;74.75
59877;BME280;45749;51.140;17.184;2022-07-10T09:16:43;100240.72;;;14.85;74.71
59877;BME280;45749;51.140;17.184;2022-07-10T09:19:19;100242.94;;;14.90;74.74
59877;BME280;45749;51.140;17.184;2022-07-10T09:22:04;100238.60;;;14.98;74.82
59877;BME280;45749;51.140;17.184;2022-07-10T09:24:36;100242.84;;;15.15;74.90
59877;BME280;45749;51.140;17.184;2022-07-10T09:27:05;100242.26;;;15.31;73.81
59877;BME280;45749;51.140;17.184;2022-07-10T09:29:34;100239.96;;;15.45;73.38
59877;BME280;45749;51.140;17.184;2022-07-10T09:32:11;100231.16;;;15.59;74.03
59877;BME280;45749;51.140;17.184;2022-07-10T09:34:40;100232.49;;;15.68;72.10
59877;BME280;45749;51.140;17.184;2022-07-10T09:37:29;100227.83;;;15.80;71.07
59877;BME280;45749;51.140;17.184;2022-07-10T09:42:37;100234.19;;;15.83;70.68
59877;BME280;45749;51.140;17.184;2022-07-10T09:45:13;100228.87;;;15.83;71.04
59877;BME280;45749;51.140;17.184;2022-07-10T09:47:55;100228.87;;;15.83;71.04
59877;BME280;45749;51.140;17.184;2022-07-10T09:50:27;100228.13;;;15.77;71.24
59877;BME280;45749;51.140;17.184;2022-07-10T09:53:03;100243.87;;;15.75;69.96
59877;BME280;45749;51.140;17.184;2022-07-10T09:55:32;100244.66;;;15.47;69.55
59877;BME280;45749;51.140;17.184;2022-07-10T09:58:02;100224.01;;;15.22;70.14
59877;BME280;45749;51.140;17.184;2022-07-10T10:00:36;100242.05;;;15.28;70.84
59877;BME280;45749;51.140;17.184;2022-07-10T10:03:08;100249.13;;;15.23;70.67
59877;BME280;45749;51.140;17.184;2022-07-10T10:05:39;100249.13;;;15.23;70.67
59877;BME280;45749;51.140;17.184;2022-07-10T10:08:12;100246.77;;;15.20;71.46
59877;BME280;45749;51.140;17.184;2022-07-10T10:10:46;100229.97;;;15.10;72.19
59877;BME280;45749;51.140;17.184;2022-07-10T10:13:18;100246.48;;;15.23;71.76
59877;BME280;45749;51.140;17.184;2022-07-10T10:15:51;100246.16;;;15.27;72.05
59877;BME280;45749;51.140;17.184;2022-07-10T10:18:22;100244.27;;;15.33;72.41
59877;BME280;45749;51.140;17.184;2022-07-10T10:20:51;100245.23;;;15.41;72.46
59877;BME280;45749;51.140;17.184;2022-07-10T10:23:21;100244.00;;;15.49;71.67
59877;BME280;45749;51.140;17.184;2022-07-10T10:25:54;100240.14;;;15.58;71.79
59877;BME280;45749;51.140;17.184;2022-07-10T10:28:23;100238.47;;;15.66;71.57
59877;BME280;45749;51.140;17.184;2022-07-10T10:30:55;100233.78;;;15.78;71.25
59877;BME280;45749;51.140;17.184;2022-07-10T10:36:06;100234.92;;;16.03;70.85
59877;BME280;45749;51.140;17.184;2022-07-10T10:38:59;100226.39;;;16.13;71.27
59877;BME280;45749;51.140;17.184;2022-07-10T10:41:30;100225.33;;;16.24;70.35
59877;BME280;45749;51.140;17.184;2022-07-10T10:46:55;100222.27;;;16.51;69.83
59877;BME280;45749;51.140;17.184;2022-07-10T10:49:24;100224.95;;;16.55;67.96
59877;BME280;45749;51.140;17.184;2022-07-10T10:52:01;100231.15;;;16.55;67.18
59877;BME280;45749;51.140;17.184;2022-07-10T11:00:05;100214.39;;;16.63;67.98
59877;BME280;45749;51.140;17.184;2022-07-10T11:02:35;100207.27;;;16.68;67.88
59877;BME280;45749;51.140;17.184;2022-07-10T11:07:59;100195.53;;;16.96;68.38
59877;BME280;45749;51.140;17.184;2022-07-10T11:13:12;100208.58;;;17.29;66.85
59877;BME280;45749;51.140;17.184;2022-07-10T11:15:44;100204.08;;;17.30;66.59
59877;BME280;45749;51.140;17.184;2022-07-10T11:18:13;100196.05;;;17.22;65.62
59877;BME280;45749;51.140;17.184;2022-07-10T11:20:47;100196.67;;;17.16;66.12
59877;BME280;45749;51.140;17.184;2022-07-10T11:26:34;100194.85;;;17.20;66.55
59877;BME280;45749;51.140;17.184;2022-07-10T11:29:10;100194.19;;;17.18;65.89
59877;BME280;45749;51.140;17.184;2022-07-10T11:31:37;100202.20;;;17.22;67.10
59877;BME280;45749;51.140;17.184;2022-07-10T11:34:05;100201.81;;;17.43;66.31
59877;BME280;45749;51.140;17.184;2022-07-10T11:36:31;100202.77;;;17.64;64.08
59877;BME280;45749;51.140;17.184;2022-07-10T11:39:03;100191.80;;;17.75;64.67
59877;BME280;45749;51.140;17.184;2022-07-10T11:41:31;100194.86;;;17.80;63.28
59877;BME280;45749;51.140;17.184;2022-07-10T11:44:02;100196.67;;;17.80;63.44
59877;BME280;45749;51.140;17.184;2022-07-10T11:46:33;100192.34;;;17.79;62.90
59877;BME280;45749;51.140;17.184;2022-07-10T11:49:04;100194.69;;;17.78;62.63
59877;BME280;45749;51.140;17.184;2022-07-10T11:51:33;100194.47;;;17.75;62.83
59877;BME280;45749;51.140;17.184;2022-07-10T11:54:07;100199.80;;;17.71;61.70
59877;BME280;45749;51.140;17.184;2022-07-10T11:56:41;100204.75;;;17.62;61.88
59877;BME280;45749;51.140;17.184;2022-07-10T11:59:11;100202.08;;;17.58;62.49
59877;BME280;45749;51.140;17.184;2022-07-10T12:01:43;100194.25;;;17.61;62.92
59877;BME280;45749;51.140;17.184;2022-07-10T12:04:11;100198.92;;;17.67;63.38
59877;BME280;45749;51.140;17.184;2022-07-10T12:06:40;100196.44;;;17.69;62.52
59877;BME280;45749;51.140;17.184;2022-07-10T12:09:14;100208.93;;;17.61;62.24
59877;BME280;45749;51.140;17.184;2022-07-10T12:11:38;100200.03;;;17.52;62.18
59877;BME280;45749;51.140;17.184;2022-07-10T12:14:14;100209.31;;;17.44;62.03
59877;BME280;45749;51.140;17.184;2022-07-10T12:16:48;100210.45;;;17.37;62.25
59877;BME280;45749;51.140;17.184;2022-07-10T12:19:18;100218.49;;;17.41;61.77
59877;BME280;45749;51.140;17.184;2022-07-10T12:21:50;100209.52;;;17.50;60.91
59877;BME280;45749;51.140;17.184;2022-07-10T12:24:18;100206.72;;;17.56;61.73
59877;BME280;45749;51.140;17.184;2022-07-10T12:26:45;100201.38;;;17.56;61.71
59877;BME280;45749;51.140;17.184;2022-07-10T12:29:21;100201.89;;;17.55;62.18
59877;BME280;45749;51.140;17.184;2022-07-10T12:31:53;100202.40;;;17.59;62.44
59877;BME280;45749;51.140;17.184;2022-07-10T12:34:36;100207.79;;;17.67;62.35
59877;BME280;45749;51.140;17.184;2022-07-10T12:37:12;100249.63;;;17.67;62.49
59877;BME280;45749;51.140;17.184;2022-07-10T12:39:38;100238.33;;;17.43;65.74
59877;BME280;45749;51.140;17.184;2022-07-10T12:42:25;100242.78;;;17.08;67.11
59877;BME280;45749;51.140;17.184;2022-07-10T12:44:51;100245.39;;;16.68;67.88
59877;BME280;45749;51.140;17.184;2022-07-10T12:47:18;100241.73;;;16.51;69.51
59877;BME280;45749;51.140;17.184;2022-07-10T12:49:56;100237.81;;;16.41;69.23
59877;BME280;45749;51.140;17.184;2022-07-10T12:52:35;100234.28;;;16.37;67.87
59877;BME280;45749;51.140;17.184;2022-07-10T12:55:12;100233.42;;;16.32;67.51
59877;BME280;45749;51.140;17.184;2022-07-10T12:57:58;100230.36;;;16.27;66.79
59877;BME280;45749;51.140;17.184;2022-07-10T13:00:29;100237.02;;;16.27;67.55
59877;BME280;45749;51.140;17.184;2022-07-10T13:05:36;100243.13;;;16.24;66.18
59877;BME280;45749;51.140;17.184;2022-07-10T13:08:17;100244.27;;;16.21;65.93
59877;BME280;45749;51.140;17.184;2022-07-10T13:10:54;100244.59;;;16.22;65.52